Terminal Aerodrome Forecast
Issued by NWS

Home | Current Version | Previous Version | Text Only | Print | Product List | Glossary On
Versions: 1 2 3 4 5 6 7 8 9 10 11 12
622
FTUS46 KPDT 212320
TAFDLS
TAF
KDLS 212320Z 2200/2224 08008KT P6SM FEW300
     FM221500 33006KT P6SM SKC
     FM221800 32013G21KT P6SM SKC=

USA.gov is the U.S. government's official web portal to all federal, state and local government web resources and services.